aviador You're here:

EPLL Decoded Metar

LODZ in POLAND
Report Time2018-02-22 08:30:00
UTC Time2018-02-22 08:39:21
Flight Rules vfr VFR
Wind080° at 09 kt
W.Decomp.*RWY 07: 9.0 kt HW 0.9 kt RCW
W.Rank080° ranks 11
Current wind is above 080° avg. (5.2)
Visibility9999 m
Phenomena:N/A
Clouds:N/A
Expected CloudBase > 2,000 ft AGL from Temp-Dew spread
CeilingNone
Temp-4°C (ISA -18)
Dew Point-9°C (69% RH)
AAT-10.2°C
QNH1024 hPa
Density Alt-1,919 ft
Elevation604 ft
Report Wrong Elevation
Raw Report
EPLL 220830Z 08009KT 060V120 CAVOK M04/M09 Q1024=

Extra information for EPLL:More info

Metar Taf Metar & Taf Last 4 Metars F.Rules Stats Wind Profile Meteogram Temp Stats Airport Information Weather charts Add Link Nearby VenuesMetar ALERT Operation Metar Decoded Social comments